createdAt,value
2018-06-30T00:01:43.242Z,65.25
2018-06-30T00:04:13.168Z,65.35
2018-06-30T00:06:42.514Z,65.27
2018-06-30T00:09:12.214Z,66.10
2018-06-30T00:11:41.742Z,65.96
2018-06-30T00:14:11.967Z,66.07
2018-06-30T00:16:44.826Z,65.87
2018-06-30T00:19:14.329Z,66.29
2018-06-30T00:21:44.038Z,66.63
2018-06-30T00:24:13.482Z,66.60
2018-06-30T00:26:42.864Z,67.32
2018-06-30T00:29:12.299Z,67.06
2018-06-30T00:31:41.713Z,67.12
2018-06-30T00:34:11.491Z,67.49
2018-06-30T00:36:41.414Z,67.52
2018-06-30T00:39:11.485Z,68.22
2018-06-30T00:41:41.002Z,67.70
2018-06-30T00:44:10.926Z,68.39
2018-06-30T00:46:40.464Z,68.45
2018-06-30T00:49:13.638Z,68.60
2018-06-30T00:51:43.011Z,68.83
2018-06-30T00:54:12.345Z,68.98
2018-06-30T00:56:41.865Z,69.43
2018-06-30T00:59:11.691Z,69.58
2018-06-30T01:01:42.091Z,69.99
2018-06-30T01:04:11.436Z,70.47
2018-06-30T01:06:40.990Z,70.25
2018-06-30T01:09:17.957Z,70.61
2018-06-30T01:11:47.303Z,70.57
2018-06-30T01:14:16.943Z,70.29
2018-06-30T01:16:48.080Z,71.17
2018-06-30T01:19:17.872Z,71.49
2018-06-30T01:21:47.521Z,71.10
2018-06-30T01:24:17.130Z,71.50
2018-06-30T01:26:46.394Z,71.59
2018-06-30T01:29:16.109Z,71.69
2018-06-30T01:31:45.629Z,71.76
2018-06-30T01:34:15.398Z,71.83
2018-06-30T01:36:44.995Z,72.05
2018-06-30T01:39:14.260Z,72.18
2018-06-30T01:41:44.055Z,72.54
2018-06-30T01:44:13.589Z,73.17
2018-06-30T01:46:43.740Z,73.54
2018-06-30T01:49:13.179Z,72.84
2018-06-30T01:51:42.536Z,73.55
2018-06-30T01:54:11.933Z,72.94
2018-06-30T01:56:41.502Z,73.06
2018-06-30T01:59:10.833Z,73.59
2018-06-30T02:01:40.653Z,73.82
2018-06-30T02:04:10.523Z,73.50
2018-06-30T02:06:39.815Z,74.08
2018-06-30T02:09:10.633Z,73.92
2018-06-30T02:11:40.740Z,74.33
2018-06-30T02:14:10.720Z,74.13
2018-06-30T02:16:40.234Z,74.58
2018-06-30T02:19:09.573Z,74.95
2018-06-30T02:21:39.163Z,75.63
2018-06-30T02:24:08.832Z,75.03
2018-06-30T02:26:40.255Z,74.88
2018-06-30T02:29:10.094Z,75.57
2018-06-30T02:31:39.531Z,75.14
2018-06-30T02:34:08.898Z,75.67
2018-06-30T02:36:38.486Z,75.21
2018-06-30T02:39:08.943Z,75.62
2018-06-30T02:41:38.279Z,75.87
2018-06-30T02:44:07.885Z,75.68
2018-06-30T02:46:37.154Z,76.02
2018-06-30T02:49:07.295Z,75.62
2018-06-30T02:51:36.983Z,76.14
2018-06-30T02:54:06.707Z,76.21
2018-06-30T02:56:36.075Z,76.44
2018-06-30T02:59:05.905Z,76.44
2018-06-30T03:01:35.543Z,76.68
2018-06-30T03:04:04.965Z,76.74
2018-06-30T03:06:34.436Z,76.92
2018-06-30T03:09:04.977Z,77.31
2018-06-30T03:11:34.516Z,77.19
2018-06-30T03:14:04.379Z,77.09
2018-06-30T03:16:34.264Z,77.31
2018-06-30T03:19:04.326Z,77.08
2018-06-30T03:21:33.624Z,77.94
2018-06-30T03:24:03.744Z,77.59
2018-06-30T03:26:33.424Z,77.66
2018-06-30T03:29:02.910Z,77.60
2018-06-30T03:31:32.683Z,77.70
2018-06-30T03:34:02.503Z,77.87
2018-06-30T03:36:32.426Z,77.76
2018-06-30T03:39:02.225Z,78.00
2018-06-30T03:41:31.538Z,78.36
2018-06-30T03:44:01.431Z,78.05
2018-06-30T03:46:30.788Z,78.25
2018-06-30T03:49:00.446Z,78.28
2018-06-30T03:51:30.374Z,78.58
2018-06-30T03:54:00.084Z,78.55
2018-06-30T03:56:30.011Z,78.55
2018-06-30T03:59:00.186Z,78.62
2018-06-30T04:01:29.627Z,78.51
2018-06-30T04:03:59.501Z,78.21
2018-06-30T04:06:29.209Z,78.30
2018-06-30T04:08:58.977Z,78.88
2018-06-30T04:11:29.076Z,78.40
2018-06-30T04:13:58.465Z,78.75
2018-06-30T04:16:28.382Z,78.63
2018-06-30T04:19:02.882Z,79.03
2018-06-30T04:21:32.264Z,78.63
2018-06-30T04:24:01.690Z,78.64
2018-06-30T04:26:31.948Z,78.94
2018-06-30T04:29:01.902Z,78.99
2018-06-30T04:31:31.200Z,78.79
2018-06-30T04:34:00.654Z,78.95
2018-06-30T04:36:31.065Z,78.83
2018-06-30T04:39:00.980Z,78.74
2018-06-30T04:41:30.688Z,78.75
2018-06-30T04:44:01.871Z,78.67
2018-06-30T04:46:32.446Z,78.73
2018-06-30T04:49:01.865Z,78.93
2018-06-30T04:51:31.101Z,78.46
2018-06-30T04:54:00.989Z,78.63
2018-06-30T04:56:31.113Z,78.58
2018-06-30T04:59:00.893Z,78.68
2018-06-30T05:01:30.371Z,78.46
2018-06-30T05:03:59.816Z,78.44
2018-06-30T05:06:29.116Z,78.62
2018-06-30T05:08:59.066Z,78.26
2018-06-30T05:11:29.092Z,77.97
2018-06-30T05:13:58.679Z,78.34
2018-06-30T05:16:27.981Z,78.35
2018-06-30T05:18:58.373Z,78.60
2018-06-30T05:21:29.583Z,77.78
2018-06-30T05:24:00.085Z,78.52
2018-06-30T05:26:29.853Z,78.51
2018-06-30T05:28:59.190Z,77.93
2018-06-30T05:31:33.251Z,77.47
2018-06-30T05:34:04.391Z,77.51
2018-06-30T05:36:33.903Z,77.37
2018-06-30T05:39:03.499Z,77.50
2018-06-30T05:41:33.337Z,77.31
2018-06-30T05:44:02.726Z,77.55
2018-06-30T05:46:32.079Z,77.36
2018-06-30T05:49:01.610Z,76.82
2018-06-30T05:51:31.561Z,76.67
2018-06-30T05:54:00.799Z,76.43
2018-06-30T05:56:31.163Z,75.93
2018-06-30T05:59:00.583Z,75.31
2018-06-30T06:01:30.104Z,75.58
2018-06-30T06:03:59.554Z,74.83
2018-06-30T06:06:29.257Z,74.80
2018-06-30T06:08:59.365Z,74.72
2018-06-30T06:11:28.968Z,74.54
2018-06-30T06:13:58.603Z,74.98
2018-06-30T06:16:28.229Z,74.42
2018-06-30T06:18:57.818Z,74.14
2018-06-30T06:21:27.463Z,74.25
2018-06-30T06:23:56.821Z,73.73
2018-06-30T06:26:26.539Z,73.39
2018-06-30T06:28:56.205Z,73.53
2018-06-30T06:31:25.750Z,72.67
2018-06-30T06:33:55.442Z,72.87
2018-06-30T06:36:25.024Z,73.03
2018-06-30T06:38:58.265Z,72.07
2018-06-30T06:41:27.682Z,72.18
2018-06-30T06:43:57.006Z,72.02
2018-06-30T06:46:26.689Z,71.88
2018-06-30T06:48:56.039Z,72.00
2018-06-30T06:51:25.763Z,71.25
2018-06-30T06:53:59.416Z,71.38
2018-06-30T06:56:28.807Z,71.07
2018-06-30T06:58:58.155Z,70.58
2018-06-30T07:01:27.472Z,70.84
2018-06-30T07:03:57.055Z,70.43
2018-06-30T07:06:26.520Z,70.12
2018-06-30T07:08:59.666Z,69.51
2018-06-30T07:11:28.947Z,69.65
2018-06-30T07:13:58.332Z,69.50
2018-06-30T07:16:27.827Z,69.62
2018-06-30T07:18:57.476Z,68.64
2018-06-30T07:21:26.881Z,68.67
2018-06-30T07:23:56.315Z,68.64
2018-06-30T07:26:25.993Z,68.90
2018-06-30T07:28:56.167Z,68.42
2018-06-30T07:31:25.827Z,68.20
2018-06-30T07:33:56.202Z,69.00
2018-06-30T07:36:25.564Z,68.48
2018-06-30T07:38:55.027Z,68.52
2018-06-30T07:41:24.336Z,68.45
2018-06-30T07:43:53.970Z,67.80
2018-06-30T07:46:24.282Z,67.54
2018-06-30T07:48:53.694Z,66.44
2018-06-30T07:51:23.077Z,67.12
2018-06-30T07:53:52.400Z,67.15
2018-06-30T07:58:55.453Z,65.99
2018-06-30T08:01:26.015Z,65.97
2018-06-30T08:03:55.386Z,66.80
2018-06-30T08:06:25.128Z,65.26
2018-06-30T08:08:54.535Z,65.13
2018-06-30T08:11:23.911Z,65.44
2018-06-30T08:13:53.466Z,65.24
2018-06-30T08:16:23.051Z,64.40
2018-06-30T08:18:52.729Z,64.50
2018-06-30T08:21:22.148Z,64.79
2018-06-30T08:23:51.708Z,63.67
2018-06-30T08:26:21.309Z,63.77
2018-06-30T08:28:51.113Z,64.08
2018-06-30T08:31:24.556Z,63.69
2018-06-30T08:33:54.212Z,63.47
2018-06-30T08:36:27.317Z,63.25
2018-06-30T08:38:56.697Z,61.89
2018-06-30T08:41:26.243Z,62.58
2018-06-30T08:43:56.201Z,62.40
2018-06-30T08:46:25.846Z,61.97
2018-06-30T08:48:55.224Z,61.66
2018-06-30T08:51:28.199Z,60.88
2018-06-30T08:53:57.951Z,61.31
2018-06-30T08:56:27.397Z,61.43
2018-06-30T08:58:56.762Z,61.24
2018-06-30T09:01:26.645Z,60.31
2018-06-30T09:03:56.139Z,60.16
2018-06-30T09:06:26.374Z,60.24
2018-06-30T09:08:56.223Z,59.75
2018-06-30T09:11:25.525Z,59.31
2018-06-30T09:13:55.295Z,58.58
2018-06-30T09:16:25.054Z,57.79
2018-06-30T09:18:55.011Z,58.21
2018-06-30T09:21:26.230Z,58.51
2018-06-30T09:23:56.264Z,56.29
2018-06-30T09:26:25.680Z,56.21
2018-06-30T09:28:55.302Z,55.89
2018-06-30T09:31:24.679Z,56.41
2018-06-30T09:33:54.093Z,55.56
2018-06-30T09:36:23.708Z,55.75
2018-06-30T09:38:53.647Z,54.63
2018-06-30T09:41:26.542Z,53.90
2018-06-30T09:43:56.112Z,53.01
2018-06-30T09:46:25.739Z,54.17
2018-06-30T09:48:55.746Z,53.93
2018-06-30T09:51:25.548Z,52.88
2018-06-30T09:53:55.109Z,52.14
2018-06-30T09:56:25.596Z,52.18
2018-06-30T09:58:55.007Z,52.18
2018-06-30T10:01:24.307Z,51.48
2018-06-30T10:03:53.817Z,51.57
2018-06-30T10:06:23.269Z,51.64
2018-06-30T10:08:53.779Z,51.86
2018-06-30T10:11:24.328Z,51.87
2018-06-30T10:13:54.782Z,52.07
2018-06-30T10:16:25.483Z,51.15
2018-06-30T10:18:54.979Z,50.84
2018-06-30T10:21:24.464Z,50.65
2018-06-30T10:23:54.107Z,50.13
2018-06-30T10:26:23.537Z,50.86
2018-06-30T10:28:53.438Z,50.75
2018-06-30T10:31:22.932Z,50.40
2018-06-30T10:33:52.605Z,50.12
2018-06-30T10:36:22.006Z,49.03
2018-06-30T10:38:51.830Z,49.42
2018-06-30T10:41:21.696Z,49.48
2018-06-30T10:43:53.718Z,49.84
2018-06-30T10:46:23.881Z,48.60
2018-06-30T10:48:54.055Z,48.51
2018-06-30T10:51:24.410Z,47.53
2018-06-30T10:53:53.891Z,47.69
2018-06-30T10:56:23.565Z,48.08
2018-06-30T10:58:53.163Z,47.45
2018-06-30T11:01:22.994Z,47.40
2018-06-30T11:03:52.691Z,47.46
2018-06-30T11:06:22.612Z,46.26
2018-06-30T11:08:53.822Z,46.96
2018-06-30T11:11:23.467Z,45.60
2018-06-30T11:13:52.919Z,45.97
2018-06-30T11:16:22.739Z,45.50
2018-06-30T11:18:52.411Z,44.67
2018-06-30T11:21:22.583Z,44.66
2018-06-30T11:23:52.525Z,45.24
2018-06-30T11:26:22.541Z,45.55
2018-06-30T11:28:51.944Z,44.78
2018-06-30T11:31:21.836Z,43.07
2018-06-30T11:33:51.637Z,43.56
2018-06-30T11:36:21.701Z,43.83
2018-06-30T11:38:51.472Z,42.49
2018-06-30T11:41:20.794Z,43.02
2018-06-30T11:43:50.364Z,40.93
2018-06-30T11:46:20.228Z,40.13
2018-06-30T11:48:49.562Z,39.42
2018-06-30T11:51:19.006Z,39.90
2018-06-30T11:53:48.678Z,39.77
2018-06-30T11:56:18.314Z,38.28
2018-06-30T11:58:47.877Z,37.02
2018-06-30T12:01:17.307Z,37.10
2018-06-30T12:03:46.550Z,37.10
2018-06-30T12:06:16.229Z,36.92
2018-06-30T12:08:45.541Z,37.77
2018-06-30T12:11:15.778Z,37.27
2018-06-30T12:13:45.480Z,37.01
2018-06-30T12:16:14.892Z,36.89
2018-06-30T12:18:44.232Z,36.70
2018-06-30T12:21:14.591Z,36.12
2018-06-30T12:23:44.037Z,36.24
2018-06-30T12:26:13.518Z,35.15
2018-06-30T12:28:43.023Z,35.46
2018-06-30T12:31:12.722Z,34.72
2018-06-30T12:33:42.356Z,34.74
2018-06-30T12:36:12.048Z,34.35
2018-06-30T12:38:41.457Z,32.99
2018-06-30T12:41:11.072Z,33.50
2018-06-30T12:43:40.793Z,32.56
2018-06-30T12:46:10.339Z,33.35
2018-06-30T12:48:40.098Z,33.76
2018-06-30T12:51:09.393Z,32.26
2018-06-30T12:53:38.995Z,33.35
2018-06-30T12:56:08.375Z,33.27
2018-06-30T12:58:38.390Z,32.39
2018-06-30T13:01:07.882Z,32.37
2018-06-30T13:03:37.484Z,31.36
2018-06-30T13:06:06.719Z,30.89
2018-06-30T13:08:36.340Z,31.10
2018-06-30T13:11:06.219Z,30.33
2018-06-30T13:13:35.552Z,29.17
2018-06-30T13:16:04.972Z,29.96
2018-06-30T13:18:35.073Z,29.52
2018-06-30T13:21:04.413Z,29.19
2018-06-30T13:23:34.089Z,29.19
2018-06-30T13:26:03.578Z,29.06
2018-06-30T13:28:33.570Z,29.14
2018-06-30T13:31:03.311Z,29.39
2018-06-30T13:33:32.960Z,30.03
2018-06-30T13:36:02.835Z,29.57
2018-06-30T13:38:33.167Z,29.59
2018-06-30T13:41:02.920Z,30.44
2018-06-30T13:43:32.638Z,29.79
2018-06-30T13:46:02.755Z,29.32
2018-06-30T13:48:32.791Z,29.83
2018-06-30T13:51:06.835Z,29.19
2018-06-30T13:53:37.062Z,29.47
2018-06-30T13:56:07.546Z,29.56
2018-06-30T13:58:37.605Z,29.66
2018-06-30T14:01:07.116Z,29.73
2018-06-30T14:03:36.539Z,29.54
2018-06-30T14:06:05.994Z,29.88
2018-06-30T14:08:36.614Z,30.18
2018-06-30T14:11:06.061Z,28.47
2018-06-30T14:13:35.663Z,28.94
2018-06-30T14:16:05.126Z,28.74
2018-06-30T14:18:35.192Z,29.30
2018-06-30T14:21:05.321Z,28.00
2018-06-30T14:23:34.651Z,28.27
2018-06-30T14:26:04.369Z,28.33
2018-06-30T14:28:33.704Z,28.56
2018-06-30T14:31:03.519Z,28.77
2018-06-30T14:33:32.919Z,28.55
2018-06-30T14:36:02.754Z,28.38
2018-06-30T14:38:32.900Z,27.76
2018-06-30T14:41:02.673Z,27.78
2018-06-30T14:43:32.367Z,27.66
2018-06-30T14:46:01.725Z,28.11
2018-06-30T14:48:31.348Z,29.02
2018-06-30T14:51:00.833Z,28.25
2018-06-30T14:53:30.403Z,28.23
2018-06-30T14:56:00.364Z,27.47
2018-06-30T14:58:30.513Z,27.60
2018-06-30T15:00:59.867Z,28.05
2018-06-30T15:03:32.873Z,28.05
2018-06-30T15:06:02.894Z,27.68
2018-06-30T15:08:32.191Z,27.54
2018-06-30T15:11:01.474Z,28.24
2018-06-30T15:13:31.036Z,27.87
2018-06-30T15:16:00.513Z,28.01
2018-06-30T15:18:30.619Z,27.50
2018-06-30T15:21:00.156Z,28.00
2018-06-30T15:23:29.548Z,27.99
2018-06-30T15:25:59.380Z,27.64
2018-06-30T15:28:29.004Z,27.80
2018-06-30T15:30:58.659Z,27.46
2018-06-30T15:33:27.906Z,28.13
2018-06-30T15:35:57.487Z,27.83
2018-06-30T15:38:27.665Z,28.29
2018-06-30T15:40:56.995Z,27.61
2018-06-30T15:43:26.684Z,27.56
2018-06-30T15:45:56.385Z,27.27
2018-06-30T15:48:26.204Z,27.67
2018-06-30T15:50:56.007Z,27.33
2018-06-30T15:53:25.411Z,27.13
2018-06-30T15:55:54.976Z,26.88
2018-06-30T15:58:24.459Z,26.63
2018-06-30T16:00:53.868Z,27.05
2018-06-30T16:03:25.151Z,26.45
2018-06-30T16:05:56.165Z,26.89
2018-06-30T16:08:25.947Z,26.34
2018-06-30T16:10:58.653Z,26.54
2018-06-30T16:13:29.108Z,26.87
2018-06-30T16:15:59.520Z,26.30
2018-06-30T16:18:29.054Z,25.93
2018-06-30T16:20:58.514Z,25.67
2018-06-30T16:23:29.151Z,26.05
2018-06-30T16:25:58.360Z,26.04
2018-06-30T16:28:27.710Z,25.84
2018-06-30T16:30:58.008Z,25.61
2018-06-30T16:33:27.370Z,25.69
2018-06-30T16:35:56.909Z,25.64
2018-06-30T16:38:26.332Z,25.57
2018-06-30T16:40:55.781Z,26.03
2018-06-30T16:43:25.054Z,25.64
2018-06-30T16:45:54.736Z,25.74
2018-06-30T16:48:24.569Z,25.37
2018-06-30T16:50:54.579Z,25.86
2018-06-30T16:53:24.566Z,25.67
2018-06-30T16:55:53.856Z,25.76
2018-06-30T16:58:23.603Z,25.92
2018-06-30T17:00:52.989Z,25.24
2018-06-30T17:03:23.610Z,24.92
2018-06-30T17:05:53.229Z,25.84
2018-06-30T17:08:23.393Z,25.56
2018-06-30T17:10:52.640Z,25.04
2018-06-30T17:13:22.230Z,24.67
2018-06-30T17:15:51.566Z,24.14
2018-06-30T17:18:21.009Z,24.22
2018-06-30T17:20:51.176Z,24.30
2018-06-30T17:23:20.536Z,24.38
2018-06-30T17:25:50.066Z,24.55
2018-06-30T17:28:19.273Z,24.57
2018-06-30T17:30:49.611Z,24.66
2018-06-30T17:33:19.032Z,24.55
2018-06-30T17:35:48.545Z,23.88
2018-06-30T17:38:18.563Z,23.87
2018-06-30T17:40:51.935Z,24.44
2018-06-30T17:43:21.476Z,24.39
2018-06-30T17:45:51.336Z,24.50
2018-06-30T17:48:20.644Z,24.76
2018-06-30T17:50:50.532Z,24.59
2018-06-30T17:53:20.161Z,24.72
2018-06-30T17:55:49.663Z,24.64
2018-06-30T17:58:19.050Z,24.71
2018-06-30T18:00:48.382Z,24.76
2018-06-30T18:03:18.061Z,24.74
2018-06-30T18:05:47.605Z,24.87
2018-06-30T18:08:17.131Z,24.59
2018-06-30T18:10:46.732Z,24.62
2018-06-30T18:13:16.038Z,24.54
2018-06-30T18:15:45.824Z,24.98
2018-06-30T18:18:15.123Z,24.79
2018-06-30T18:20:44.991Z,24.69
2018-06-30T18:23:14.290Z,24.57
2018-06-30T18:25:43.823Z,24.84
2018-06-30T18:28:13.701Z,24.87
2018-06-30T18:30:43.411Z,24.42
2018-06-30T18:33:13.082Z,24.73
2018-06-30T18:35:42.468Z,24.55
2018-06-30T18:38:12.084Z,24.64
2018-06-30T18:40:41.974Z,25.26
2018-06-30T18:43:11.722Z,25.08
2018-06-30T18:45:41.261Z,25.14
2018-06-30T18:48:11.575Z,25.36
2018-06-30T18:50:40.855Z,25.07
2018-06-30T18:53:10.253Z,24.98
2018-06-30T18:55:39.603Z,25.11
2018-06-30T18:58:08.847Z,25.32
2018-06-30T19:00:38.761Z,24.78
2018-06-30T19:03:08.440Z,24.90
2018-06-30T19:05:37.743Z,25.50
2018-06-30T19:08:07.430Z,25.46
2018-06-30T19:10:36.940Z,25.20
2018-06-30T19:13:06.852Z,25.79
2018-06-30T19:15:36.735Z,25.72
2018-06-30T19:18:06.557Z,25.79
2018-06-30T19:20:36.104Z,26.01
2018-06-30T19:23:05.581Z,26.00
2018-06-30T19:25:36.500Z,25.68
2018-06-30T19:28:06.184Z,26.22
2018-06-30T19:30:35.522Z,26.23
2018-06-30T19:33:05.085Z,26.08
2018-06-30T19:35:34.917Z,26.09
2018-06-30T19:38:04.516Z,26.52
2018-06-30T19:40:33.820Z,26.66
2018-06-30T19:43:03.415Z,26.71
2018-06-30T19:45:33.133Z,26.84
2018-06-30T19:48:06.129Z,27.01
2018-06-30T19:50:35.692Z,27.22
2018-06-30T19:53:05.291Z,27.28
2018-06-30T19:55:35.194Z,27.63
2018-06-30T19:58:04.886Z,27.54
2018-06-30T20:00:34.458Z,27.99
2018-06-30T20:03:04.085Z,28.70
2018-06-30T20:05:33.786Z,29.00
2018-06-30T20:08:03.592Z,29.29
2018-06-30T20:10:33.123Z,29.87
2018-06-30T20:13:02.478Z,30.18
2018-06-30T20:15:32.261Z,30.54
2018-06-30T20:18:02.152Z,31.00
2018-06-30T20:20:31.556Z,30.82
2018-06-30T20:23:01.568Z,31.29
2018-06-30T20:25:31.394Z,31.20
2018-06-30T20:28:04.784Z,31.66
2018-06-30T20:30:36.132Z,31.15
2018-06-30T20:33:05.796Z,31.27
2018-06-30T20:35:35.154Z,31.64
2018-06-30T20:38:08.048Z,31.67
2018-06-30T20:40:37.931Z,32.11
2018-06-30T20:43:07.659Z,31.93
2018-06-30T20:45:37.231Z,32.13
2018-06-30T20:48:07.723Z,31.87
2018-06-30T20:50:43.254Z,32.28
2018-06-30T20:53:12.995Z,31.90
2018-06-30T20:55:42.827Z,32.26
2018-06-30T20:58:12.332Z,32.45
2018-06-30T21:00:42.284Z,32.31
2018-06-30T21:03:14.187Z,32.31
2018-06-30T21:05:44.019Z,32.63
2018-06-30T21:08:13.578Z,32.48
2018-06-30T21:10:43.366Z,33.06
2018-06-30T21:13:12.919Z,32.84
2018-06-30T21:15:42.769Z,33.07
2018-06-30T21:18:12.648Z,33.08
2018-06-30T21:20:42.116Z,33.53
2018-06-30T21:23:12.197Z,33.34
2018-06-30T21:25:41.443Z,33.07
2018-06-30T21:28:11.564Z,33.24
2018-06-30T21:30:40.907Z,33.60
2018-06-30T21:33:11.328Z,33.01
2018-06-30T21:35:41.082Z,32.86
2018-06-30T21:38:10.463Z,33.34
2018-06-30T21:40:40.748Z,33.31
2018-06-30T21:43:10.361Z,33.37
2018-06-30T21:45:39.942Z,33.19
2018-06-30T21:48:09.519Z,33.42
2018-06-30T21:50:39.482Z,33.71
2018-06-30T21:53:08.948Z,33.62
2018-06-30T21:55:39.207Z,33.84
2018-06-30T21:58:08.963Z,33.93
2018-06-30T22:00:51.889Z,33.86
2018-06-30T22:03:24.930Z,33.69
2018-06-30T22:05:56.658Z,34.48
2018-06-30T22:08:26.546Z,34.05
2018-06-30T22:10:55.986Z,34.31
2018-06-30T22:13:25.483Z,34.30
2018-06-30T22:15:55.161Z,34.32
2018-06-30T22:18:25.348Z,34.79
2018-06-30T22:20:54.697Z,34.60
2018-06-30T22:23:24.540Z,34.76
2018-06-30T22:25:53.911Z,35.04
2018-06-30T22:28:23.572Z,34.76
2018-06-30T22:30:53.221Z,34.76
2018-06-30T22:33:25.827Z,35.34
2018-06-30T22:35:55.675Z,34.62
2018-06-30T22:38:25.440Z,35.29
2018-06-30T22:40:55.329Z,35.56
2018-06-30T22:43:26.250Z,35.37
2018-06-30T22:45:56.700Z,35.29
2018-06-30T22:48:26.257Z,35.73
2018-06-30T22:50:55.623Z,35.44
2018-06-30T22:53:26.032Z,35.81
2018-06-30T22:55:55.832Z,36.13
2018-06-30T22:58:25.366Z,35.88
2018-06-30T23:00:54.804Z,35.37
2018-06-30T23:03:24.216Z,35.76
2018-06-30T23:05:53.521Z,36.21
2018-06-30T23:08:23.483Z,36.28
2018-06-30T23:10:52.817Z,36.52
2018-06-30T23:13:22.336Z,36.71
2018-06-30T23:15:51.902Z,36.39
2018-06-30T23:18:21.261Z,36.19
2018-06-30T23:20:50.567Z,36.24
2018-06-30T23:23:20.057Z,36.20
2018-06-30T23:25:50.392Z,36.11
2018-06-30T23:28:19.996Z,36.38
2018-06-30T23:30:49.723Z,36.59
2018-06-30T23:33:19.349Z,36.76
2018-06-30T23:35:52.235Z,36.73
2018-06-30T23:38:21.867Z,36.72
2018-06-30T23:40:51.720Z,36.89
2018-06-30T23:43:21.676Z,36.90
2018-06-30T23:45:51.151Z,36.46
2018-06-30T23:48:20.477Z,36.53
2018-06-30T23:50:50.132Z,36.37
2018-06-30T23:53:19.705Z,36.42
2018-06-30T23:55:49.162Z,36.80
2018-06-30T23:58:18.689Z,36.49
